Weston-super-Mare, United Kingdom
Current Conditions -  °F | °C
As of 2:20 AM on Monday 22 Dec 2014 (Local Time) from EGGD Reporting Station
Broken Clouds Broken Clouds  
Wind Chill: 52°   Ceiling: 600
Heat Index: 52°   Visibility: 6mi
Dew Point: 50°   Wind: 17mph
Humidity: 94%   Direction: 240°WSW
Pressure: 30.12"   Gusts: NA
Location:  51.35°N, 2.98°W
Report Text: EGGD 220120Z 24015KT 9999 BKN006 11/10 Q1020
Loading
Personal Weather Stations






























Interactive Weather Map New forecast layout! Learn more

10-Day Weather Forecast

Advertisements
Track Severe Weather on mobile